Etusivu
METAR-TAF:

METAR-TAF

Lentoasemat :

Odiham, Englanti

Leveyspiiri: 51-14N, Pituuspiiri: 000-57W, korkeus merenpinnasta: 123 m

Tämänhetkinen sää

Tämä raportti tehtiin 1 tunti ja 13 minuuttia sitten, kello 04.50 UTC
Tuuli 11 kn lounaasta
Lämpötila 3°C
Kosteus 87%
Ilmanpaine 1006 hPa
Näkyvyys 10 km tai enemmän
ei pilviä alle 1500 m:ssä eikä cumulonimbus-pilviä

METAR: EGVO 290450Z 23011KT CAVOK 03/01 Q1006 RMK BLU

Aika: 06:03 (06:03 UTC)

Sääennuste

Tämä raportti tehtiin 1 tunti ja 38 minuuttia sitten, kello 04.25 UTC
Ennuste voimassa 29. päivästä klo 06 UTC - 29. päivään klo 18 UTC
Tuuli 14 kn lännestä/lounaasta
Näkyvyys 10 km tai enemmän
Muutamia pilviä 2000 ft:n korkeudessa
Todennäköisyys 30% :
Ajoittain
29. päivästä klo 11 UTC - 29. päivään klo 16 UTC
Hajanaisia pilviä 1800 ft:n korkeudessa
heikkoja vesikuuroja

TAF: EGVO 290425Z 2906/2918 24014KT 9999 FEW020 PROB30 TEMPO 2911/2916 -SHRA SCT018

Säähavainnot ja -ennusteet yli 4000 lentoasemalta (METAR- ja TAF-raportit).

Käytössä olevat sääasemat on merkitty karttaan keltaisilla ja punaisilla pisteillä.

Aseta hiiri pisteen päälle nähdäksesi sääaseman nimen.

Klikkaa sitten nähdäksesi säähavainnot ja -ennusteet.

Kartan vaihtaminen: klikkaa mustalla rastilla varustettuja vihreitä pisteitä, niin voit zoomata sisään; viivalla varustettua vihreää pistettä, niin voit zoomata ulos tai vihreitä nuolia, niin pääset viereisille kartoille.


METAR-TAF: